ELY6 KLAX-LLBG
Flight info
| Callsign | ELY6 |
|---|---|
| Flight time | N/A |
| Altitude | 34000 |
| Route | MUELR4 RZS DCT EHF DCT CANDA/N0491F330 DCT BAM/N0486F340 DCT DNJ DCT MLP/N0487F330 DCT MIREK/N0481F350 DCT OILRS DCT LEXON DCT YMM DCT 64N100W 6830N09000W 7130N08000W/M083F350 DCT DAPAK/M083F370 DCT 75N060W 77N040W 77N020W 73N000E/N0474F370 DCT PISEL/N0471F390 DCT STO DCT GIKAV DCT PENOR DCT NUBLI DCT LENOV DCT BADOR DCT APROB/N0486F410 DCT ADORU UG80 EKI UW81 YAYLA UL854 KULAR UT39 TOMBI DCT IDAKU L35 PIKOG L609 ZUKKO |
| Aircraft | B772/H-SDE2E3FGHIJ5LORVWXY/LB1D1 |
Departure
| Time | 2026-04-21 20:34 |
|---|---|
| Airport | Los Angeles International Airport (KLAX) |
Arrival
| Time | N/A |
|---|---|
| Airport | Ben Gurion International Airport (LLBG) |
| Time | Latitude | Longitude | Altitude | Speed | Heading |
|---|---|---|---|---|---|
| 2026-04-21 19:02 | 33.94370 | -118.41450 | 97 ft | 0 kts | 263° |
| 2026-04-21 20:17 | 33.94371 | -118.41441 | 97 ft | 0 kts | 263° |
| 2026-04-21 20:20 | 33.94372 | -118.41423 | 97 ft | 4 kts | 263° |
| 2026-04-21 20:20 | 33.94375 | -118.41390 | 96 ft | 4 kts | 263° |
| 2026-04-21 20:21 | 33.94378 | -118.41365 | 95 ft | 4 kts | 258° |
| 2026-04-21 20:21 | 33.94387 | -118.41342 | 95 ft | 4 kts | 195° |
| 2026-04-21 20:21 | 33.94411 | -118.41342 | 96 ft | 4 kts | 173° |
| 2026-04-21 20:21 | 33.94427 | -118.41344 | 95 ft | 0 kts | 173° |
| 2026-04-21 20:23 | 33.94406 | -118.41341 | 95 ft | 6 kts | 173° |
| 2026-04-21 20:24 | 33.94351 | -118.41333 | 96 ft | 10 kts | 173° |
| 2026-04-21 20:24 | 33.94272 | -118.41322 | 99 ft | 12 kts | 172° |
| 2026-04-21 20:24 | 33.94191 | -118.41309 | 97 ft | 12 kts | 173° |
| 2026-04-21 20:24 | 33.94110 | -118.41298 | 99 ft | 12 kts | 173° |
| 2026-04-21 20:25 | 33.94029 | -118.41286 | 98 ft | 12 kts | 173° |
| 2026-04-21 20:25 | 33.93948 | -118.41275 | 98 ft | 12 kts | 173° |
| 2026-04-21 20:25 | 33.93868 | -118.41263 | 99 ft | 12 kts | 172° |
| 2026-04-21 20:25 | 33.93788 | -118.41246 | 99 ft | 12 kts | 156° |
| 2026-04-21 20:26 | 33.93761 | -118.41159 | 99 ft | 12 kts | 86° |
| 2026-04-21 20:26 | 33.93770 | -118.41061 | 98 ft | 11 kts | 84° |
| 2026-04-21 20:26 | 33.93770 | -118.41056 | 98 ft | 0 kts | 84° |
| 2026-04-21 20:26 | 33.93772 | -118.41037 | 97 ft | 3 kts | 83° |
| 2026-04-21 20:27 | 33.93778 | -118.40977 | 97 ft | 12 kts | 83° |
| 2026-04-21 20:27 | 33.93791 | -118.40846 | 98 ft | 17 kts | 83° |
| 2026-04-21 20:27 | 33.93806 | -118.40701 | 98 ft | 17 kts | 83° |
| 2026-04-21 20:27 | 33.93821 | -118.40557 | 100 ft | 17 kts | 83° |
| 2026-04-21 20:28 | 33.93836 | -118.40413 | 101 ft | 17 kts | 83° |
| 2026-04-21 20:28 | 33.93851 | -118.40270 | 100 ft | 17 kts | 83° |
| 2026-04-21 20:28 | 33.93865 | -118.40126 | 103 ft | 17 kts | 83° |
| 2026-04-21 20:28 | 33.93880 | -118.39980 | 101 ft | 17 kts | 83° |
| 2026-04-21 20:29 | 33.93894 | -118.39838 | 101 ft | 17 kts | 83° |
| 2026-04-21 20:29 | 33.93908 | -118.39693 | 99 ft | 17 kts | 82° |
| 2026-04-21 20:29 | 33.93924 | -118.39549 | 99 ft | 17 kts | 82° |
| 2026-04-21 20:29 | 33.93940 | -118.39405 | 100 ft | 17 kts | 82° |
| 2026-04-21 20:30 | 33.93955 | -118.39261 | 99 ft | 17 kts | 83° |
| 2026-04-21 20:30 | 33.93969 | -118.39116 | 98 ft | 17 kts | 83° |
| 2026-04-21 20:30 | 33.93983 | -118.38972 | 100 ft | 17 kts | 83° |
| 2026-04-21 20:30 | 33.93998 | -118.38828 | 101 ft | 17 kts | 83° |
| 2026-04-21 20:31 | 33.94013 | -118.38684 | 102 ft | 17 kts | 83° |
| 2026-04-21 20:31 | 33.94027 | -118.38539 | 101 ft | 17 kts | 83° |
| 2026-04-21 20:31 | 33.94042 | -118.38395 | 102 ft | 17 kts | 83° |
| 2026-04-21 20:31 | 33.94057 | -118.38253 | 101 ft | 17 kts | 83° |
| 2026-04-21 20:32 | 33.94071 | -118.38110 | 98 ft | 15 kts | 83° |
| 2026-04-21 20:32 | 33.94068 | -118.38021 | 100 ft | 11 kts | 120° |
| 2026-04-21 20:32 | 33.94006 | -118.37999 | 98 ft | 8 kts | 186° |
| 2026-04-21 20:32 | 33.93981 | -118.38040 | 100 ft | 0 kts | 263° |
| 2026-04-21 20:33 | 33.93973 | -118.38122 | 98 ft | 33 kts | 263° |
| 2026-04-21 20:33 | 33.93919 | -118.38654 | 102 ft | 95 kts | 263° |
| 2026-04-21 20:33 | 33.93815 | -118.39674 | 102 ft | 149 kts | 263° |
| 2026-04-21 20:34 | 33.93669 | -118.41066 | 337 ft | 173 kts | 261° |
| 2026-04-21 20:34 | 33.93502 | -118.42554 | 944 ft | 176 kts | 259° |
| 2026-04-21 20:34 | 33.93359 | -118.44019 | 1498 ft | 184 kts | 259° |
| 2026-04-21 20:34 | 33.93206 | -118.45610 | 1647 ft | 201 kts | 259° |
| 2026-04-21 20:35 | 33.93053 | -118.47358 | 1857 ft | 217 kts | 260° |
| 2026-04-21 20:35 | 33.92896 | -118.49217 | 2099 ft | 232 kts | 260° |
| 2026-04-21 20:35 | 33.92731 | -118.51210 | 2361 ft | 243 kts | 261° |
| 2026-04-21 20:35 | 33.92562 | -118.53276 | 2781 ft | 253 kts | 261° |
| 2026-04-21 20:36 | 33.92394 | -118.55358 | 3438 ft | 250 kts | 261° |
| 2026-04-21 20:36 | 33.92222 | -118.57448 | 4015 ft | 252 kts | 262° |
| 2026-04-21 20:36 | 33.92046 | -118.59578 | 4574 ft | 252 kts | 262° |
| 2026-04-21 20:36 | 33.91872 | -118.61675 | 5095 ft | 252 kts | 262° |
| 2026-04-21 20:37 | 33.91726 | -118.63779 | 5581 ft | 253 kts | 265° |
| 2026-04-21 20:37 | 33.91691 | -118.65857 | 6126 ft | 251 kts | 266° |
| 2026-04-21 20:37 | 33.91676 | -118.67980 | 6521 ft | 254 kts | 266° |
| 2026-04-21 20:37 | 33.91660 | -118.70102 | 7005 ft | 253 kts | 265° |
| 2026-04-21 20:38 | 33.91639 | -118.72228 | 7384 ft | 256 kts | 265° |
| 2026-04-21 20:38 | 33.91614 | -118.74392 | 7783 ft | 259 kts | 265° |
| 2026-04-21 20:38 | 33.91587 | -118.76574 | 8283 ft | 260 kts | 264° |
| 2026-04-21 20:38 | 33.91559 | -118.78720 | 8758 ft | 259 kts | 264° |
| 2026-04-21 20:39 | 33.91528 | -118.80895 | 9147 ft | 261 kts | 264° |
| 2026-04-21 20:39 | 33.91496 | -118.83087 | 9525 ft | 263 kts | 264° |
| 2026-04-21 20:39 | 33.91468 | -118.85296 | 9917 ft | 263 kts | 266° |
| 2026-04-21 20:39 | 33.91851 | -118.87494 | 9954 ft | 280 kts | 291° |
| 2026-04-21 20:40 | 33.92876 | -118.89505 | 9990 ft | 284 kts | 295° |
| 2026-04-21 20:40 | 33.93890 | -118.91544 | 9972 ft | 283 kts | 294° |
| 2026-04-21 20:40 | 33.94550 | -118.92895 | 9967 ft | 281 kts | 294° |
| 2026-04-21 20:40 | 33.95539 | -118.94916 | 9965 ft | 279 kts | 294° |
| 2026-04-21 20:41 | 33.96926 | -118.97525 | 9965 ft | 281 kts | 307° |
| 2026-04-21 20:41 | 33.97981 | -118.98506 | 9988 ft | 290 kts | 327° |
| 2026-04-21 20:41 | 33.99972 | -118.99218 | 10069 ft | 308 kts | 348° |
| 2026-04-21 20:41 | 34.02145 | -118.99475 | 10150 ft | 320 kts | 349° |
| 2026-04-21 20:42 | 34.04376 | -118.99747 | 10264 ft | 332 kts | 349° |
| 2026-04-21 20:42 | 34.06688 | -119.00040 | 10371 ft | 347 kts | 348° |
| 2026-04-21 20:42 | 34.09142 | -119.00359 | 10493 ft | 363 kts | 350° |
| 2026-04-21 20:42 | 34.11691 | -119.00728 | 10573 ft | 372 kts | 344° |
| 2026-04-21 20:43 | 34.14057 | -119.01886 | 10695 ft | 369 kts | 319° |
| 2026-04-21 20:43 | 34.15863 | -119.04052 | 11125 ft | 365 kts | 300° |
| 2026-04-21 20:43 | 34.17189 | -119.06640 | 11679 ft | 363 kts | 295° |
| 2026-04-21 20:43 | 34.18470 | -119.09286 | 12381 ft | 364 kts | 294° |
| 2026-04-21 20:44 | 34.19749 | -119.11918 | 13261 ft | 362 kts | 294° |
| 2026-04-21 20:44 | 34.21032 | -119.14532 | 14072 ft | 363 kts | 294° |
| 2026-04-21 20:44 | 34.22332 | -119.17163 | 14753 ft | 365 kts | 294° |
| 2026-04-21 20:44 | 34.23639 | -119.19803 | 15419 ft | 367 kts | 294° |
| 2026-04-21 20:45 | 34.24930 | -119.22462 | 16126 ft | 368 kts | 292° |
| 2026-04-21 20:45 | 34.26204 | -119.25150 | 16906 ft | 368 kts | 292° |
| 2026-04-21 20:45 | 34.27470 | -119.27828 | 17678 ft | 368 kts | 292° |
| 2026-04-21 20:45 | 34.28745 | -119.30525 | 18427 ft | 369 kts | 292° |
| 2026-04-21 20:46 | 34.30023 | -119.33223 | 19019 ft | 371 kts | 291° |
| 2026-04-21 20:46 | 34.31313 | -119.35949 | 19535 ft | 376 kts | 292° |
| 2026-04-21 20:46 | 34.32634 | -119.38713 | 20076 ft | 380 kts | 292° |
| 2026-04-21 20:46 | 34.33947 | -119.41457 | 20662 ft | 383 kts | 291° |
| 2026-04-21 20:47 | 34.35294 | -119.44253 | 21179 ft | 386 kts | 291° |
| 2026-04-21 20:47 | 34.36655 | -119.47073 | 21715 ft | 389 kts | 291° |
| 2026-04-21 20:47 | 34.38023 | -119.49918 | 22232 ft | 393 kts | 291° |
| 2026-04-21 20:47 | 34.39399 | -119.52788 | 22776 ft | 395 kts | 291° |
| 2026-04-21 20:48 | 34.40781 | -119.55675 | 23366 ft | 396 kts | 291° |
| 2026-04-21 20:48 | 34.42166 | -119.58571 | 23867 ft | 398 kts | 290° |
| 2026-04-21 20:48 | 34.43562 | -119.61493 | 24249 ft | 402 kts | 290° |
| 2026-04-21 20:48 | 34.44962 | -119.64428 | 24622 ft | 405 kts | 290° |
| 2026-04-21 20:49 | 34.46457 | -119.67342 | 24902 ft | 413 kts | 298° |
| 2026-04-21 20:49 | 34.48631 | -119.69820 | 25141 ft | 445 kts | 316° |
| 2026-04-21 20:49 | 34.51446 | -119.71503 | 25506 ft | 471 kts | 331° |
| 2026-04-21 20:49 | 34.54737 | -119.72306 | 25857 ft | 496 kts | 347° |
| 2026-04-21 20:50 | 34.58267 | -119.72024 | 26166 ft | 522 kts | 5° |
| 2026-04-21 20:50 | 34.61745 | -119.70478 | 26392 ft | 543 kts | 21° |
| 2026-04-21 20:50 | 34.65067 | -119.68229 | 26682 ft | 550 kts | 25° |
| 2026-04-21 20:50 | 34.68340 | -119.65789 | 26988 ft | 553 kts | 26° |
| 2026-04-21 20:51 | 34.71614 | -119.63307 | 27282 ft | 556 kts | 26° |
| 2026-04-21 20:51 | 34.74923 | -119.60850 | 27556 ft | 558 kts | 25° |
| 2026-04-21 20:51 | 34.78266 | -119.58444 | 27827 ft | 559 kts | 24° |
| 2026-04-21 20:51 | 34.81601 | -119.56109 | 28068 ft | 561 kts | 24° |
| 2026-04-21 20:52 | 34.85015 | -119.53760 | 28325 ft | 564 kts | 24° |
| 2026-04-21 20:52 | 34.88448 | -119.51416 | 28480 ft | 568 kts | 24° |
| 2026-04-21 20:52 | 34.91912 | -119.49050 | 28674 ft | 571 kts | 24° |
| 2026-04-21 20:52 | 34.95368 | -119.46678 | 28900 ft | 572 kts | 24° |
| 2026-04-21 20:53 | 34.98847 | -119.44281 | 29123 ft | 574 kts | 24° |
| 2026-04-21 20:53 | 35.02316 | -119.41884 | 29365 ft | 574 kts | 24° |
| 2026-04-21 20:53 | 35.05796 | -119.39471 | 29672 ft | 574 kts | 24° |
| 2026-04-21 20:53 | 35.09255 | -119.37069 | 29971 ft | 573 kts | 24° |
| 2026-04-21 20:54 | 35.12722 | -119.34660 | 30242 ft | 574 kts | 24° |
| 2026-04-21 20:54 | 35.16212 | -119.32237 | 30389 ft | 576 kts | 24° |
| 2026-04-21 20:54 | 35.19698 | -119.29815 | 30631 ft | 576 kts | 24° |
| 2026-04-21 20:54 | 35.23179 | -119.27392 | 30859 ft | 575 kts | 24° |
| 2026-04-21 20:55 | 35.26663 | -119.24965 | 31087 ft | 574 kts | 24° |
| 2026-04-21 20:55 | 35.30085 | -119.22583 | 31336 ft | 573 kts | 25° |
| 2026-04-21 20:55 | 35.33545 | -119.20166 | 31639 ft | 571 kts | 25° |
| 2026-04-21 20:55 | 35.37000 | -119.17749 | 31909 ft | 570 kts | 25° |
| 2026-04-21 20:56 | 35.40433 | -119.15349 | 32173 ft | 569 kts | 25° |
| 2026-04-21 20:56 | 35.43904 | -119.13003 | 32360 ft | 566 kts | 20° |
| 2026-04-21 20:56 | 35.47500 | -119.11101 | 32563 ft | 559 kts | 13° |
| 2026-04-21 20:56 | 35.51179 | -119.09638 | 32824 ft | 552 kts | 8° |
| 2026-04-21 20:57 | 35.54894 | -119.08543 | 32993 ft | 546 kts | 2° |
| 2026-04-21 20:57 | 35.58644 | -119.07892 | 33068 ft | 542 kts | 358° |
| 2026-04-21 20:57 | 35.66133 | -119.06787 | 33084 ft | 542 kts | 359° |
| 2026-04-21 20:58 | 35.73589 | -119.05659 | 33064 ft | 545 kts | 359° |
| 2026-04-21 20:58 | 35.81121 | -119.04459 | 33063 ft | 546 kts | 359° |
| 2026-04-21 20:59 | 35.88668 | -119.03231 | 33061 ft | 548 kts | 360° |
| 2026-04-21 20:59 | 35.96234 | -119.01998 | 33076 ft | 549 kts | 360° |
| 2026-04-21 21:00 | 36.03811 | -119.00766 | 33089 ft | 550 kts | 360° |
| 2026-04-21 21:00 | 36.11410 | -118.99530 | 33121 ft | 551 kts | 0° |
| 2026-04-21 21:01 | 36.19029 | -118.98290 | 33072 ft | 553 kts | 0° |
| 2026-04-21 21:01 | 36.26672 | -118.97041 | 33058 ft | 553 kts | 0° |
| 2026-04-21 21:02 | 36.34259 | -118.95798 | 33077 ft | 555 kts | 0° |
| 2026-04-21 21:02 | 36.41932 | -118.94544 | 33055 ft | 557 kts | 1° |
| 2026-04-21 21:03 | 36.49645 | -118.93274 | 33059 ft | 559 kts | 1° |
| 2026-04-21 21:03 | 36.57378 | -118.92002 | 33056 ft | 562 kts | 1° |
| 2026-04-21 21:04 | 36.65166 | -118.90717 | 33048 ft | 564 kts | 1° |
| 2026-04-21 21:04 | 36.72920 | -118.89431 | 33018 ft | 561 kts | 1° |
| 2026-04-21 21:05 | 36.80659 | -118.88151 | 33012 ft | 561 kts | 2° |
| 2026-04-21 21:05 | 36.88425 | -118.86864 | 33011 ft | 564 kts | 2° |
| 2026-04-21 21:06 | 36.96223 | -118.85567 | 32982 ft | 565 kts | 2° |
| 2026-04-21 21:06 | 37.03980 | -118.84272 | 32955 ft | 566 kts | 2° |
| 2026-04-21 21:07 | 37.11794 | -118.82967 | 32955 ft | 566 kts | 2° |
| 2026-04-21 21:07 | 37.19608 | -118.81659 | 32948 ft | 566 kts | 2° |
| 2026-04-21 21:08 | 37.27399 | -118.80351 | 32931 ft | 565 kts | 2° |
| 2026-04-21 21:08 | 37.35189 | -118.78982 | 32919 ft | 565 kts | 6° |
| 2026-04-21 21:09 | 37.42767 | -118.76400 | 32899 ft | 570 kts | 18° |
| 2026-04-21 21:09 | 37.50027 | -118.72408 | 32927 ft | 568 kts | 23° |
| 2026-04-21 21:10 | 37.57192 | -118.68277 | 32952 ft | 563 kts | 23° |
| 2026-04-21 21:10 | 37.60755 | -118.66240 | 32841 ft | 562 kts | 23° |
| 2026-04-21 21:10 | 37.64323 | -118.64221 | 32848 ft | 562 kts | 24° |
| 2026-04-21 21:11 | 37.71476 | -118.60191 | 32884 ft | 565 kts | 24° |
| 2026-04-21 21:11 | 37.78701 | -118.56124 | 32804 ft | 571 kts | 24° |
| 2026-04-21 21:12 | 37.85972 | -118.52021 | 32718 ft | 573 kts | 24° |
| 2026-04-21 21:12 | 37.93276 | -118.47890 | 32728 ft | 575 kts | 24° |
| 2026-04-21 21:13 | 38.00487 | -118.43801 | 32694 ft | 565 kts | 25° |
| 2026-04-21 21:13 | 38.07662 | -118.39720 | 32690 ft | 565 kts | 25° |
| 2026-04-21 21:14 | 38.14846 | -118.35624 | 32668 ft | 567 kts | 25° |
| 2026-04-21 21:15 | 38.15927 | -118.35007 | 32683 ft | 567 kts | 25° |
| 2026-04-21 21:15 | 38.16179 | -118.34864 | 32684 ft | 567 kts | 25° |
| 2026-04-21 21:16 | 38.23528 | -118.30662 | 32704 ft | 570 kts | 25° |
| 2026-04-21 21:16 | 38.30772 | -118.26517 | 32708 ft | 571 kts | 25° |
| 2026-04-21 21:17 | 38.38019 | -118.22359 | 32710 ft | 571 kts | 25° |
| 2026-04-21 21:17 | 38.45269 | -118.18190 | 32722 ft | 570 kts | 26° |
| 2026-04-21 21:18 | 38.52487 | -118.14030 | 32726 ft | 568 kts | 26° |
| 2026-04-21 21:18 | 38.59648 | -118.09893 | 32732 ft | 568 kts | 26° |
| 2026-04-21 21:19 | 38.66861 | -118.05718 | 32723 ft | 566 kts | 26° |
| 2026-04-21 21:19 | 38.73998 | -118.01577 | 32742 ft | 566 kts | 26° |
| 2026-04-21 21:20 | 38.81170 | -117.97406 | 32755 ft | 566 kts | 26° |
| 2026-04-21 21:20 | 38.88371 | -117.93208 | 32774 ft | 568 kts | 26° |
| 2026-04-21 21:21 | 38.94356 | -117.89713 | 32776 ft | 569 kts | 27° |
| 2026-04-21 21:21 | 39.02752 | -117.84798 | 32777 ft | 570 kts | 27° |
| 2026-04-21 21:22 | 39.08760 | -117.81275 | 32774 ft | 570 kts | 27° |
| 2026-04-21 21:22 | 39.15967 | -117.77041 | 32786 ft | 569 kts | 27° |
| 2026-04-21 21:23 | 39.23163 | -117.72801 | 32783 ft | 567 kts | 27° |
| 2026-04-21 21:23 | 39.30339 | -117.68563 | 32763 ft | 566 kts | 27° |
| 2026-04-21 21:24 | 39.37497 | -117.64328 | 32763 ft | 564 kts | 27° |
| 2026-04-21 21:24 | 39.44635 | -117.60092 | 32763 ft | 564 kts | 27° |
| 2026-04-21 21:25 | 39.51733 | -117.55870 | 32752 ft | 565 kts | 27° |
| 2026-04-21 21:25 | 39.58881 | -117.51614 | 32750 ft | 565 kts | 27° |
| 2026-04-21 21:26 | 39.66030 | -117.47342 | 32665 ft | 566 kts | 28° |
| 2026-04-21 21:26 | 39.73157 | -117.43079 | 32721 ft | 560 kts | 28° |